Wetterdaten: aktuell Donnerstag, 13.08.2020 12:58
Datum Zeit Temp. A. Feuchte A. Luftdruck Regen Wind Richtung Richtung Taupunkt Windchill Windben
13.08.2020 12:58 31,6 C 43 % 1013,7 hPa 0,0 l/m 0,0 km/h (0 Bft) N-NW 330 17,5 C 31,6 C 0,0 km/h (0 Bft)
13.08.2020 12:00 29,6 C 50 % 1014,4 hPa 0,0 l/m 1,2 km/h (1 Bft) W 270 18,1 C 29,6 C 1,2 km/h (1 Bft)
13.08.2020 11:04 27,6 C 59 % 1014,9 hPa 0,0 l/m 0,0 km/h (0 Bft) NO 35 18,8 C 27,6 C 0,0 km/h (0 Bft)
13.08.2020 10:09 25,2 C 66 % 1015,3 hPa 0,0 l/m 0,0 km/h (0 Bft) W 280 18,4 C 25,2 C 0,0 km/h (0 Bft)
13.08.2020 09:14 23,8 C 68 % 1015,8 hPa 0,0 l/m 2,1 km/h (1 Bft) W-SW 255 17,5 C 23,8 C 2,1 km/h (1 Bft)
13.08.2020 08:18 21,0 C 77 % 1016,3 hPa 0,0 l/m 0,0 km/h (0 Bft) N-NO 15 16,8 C 21,0 C 0,0 km/h (0 Bft)
13.08.2020 07:22 20,1 C 78 % 1015,9 hPa 0,0 l/m 0,0 km/h (0 Bft) N-NO 30 16,1 C 20,1 C 0,0 km/h (0 Bft)
13.08.2020 06:27 19,6 C 78 % 1016,2 hPa 0,0 l/m 0,6 km/h (0 Bft) N-NO 25 15,7 C 19,6 C 0,6 km/h (0 Bft)
13.08.2020 05:31 19,6 C 79 % 1015,8 hPa 0,0 l/m 0,0 km/h (0 Bft) W 260 15,9 C 19,6 C 0,0 km/h (0 Bft)
13.08.2020 04:36 20,1 C 77 % 1015,9 hPa 0,0 l/m 0,0 km/h (0 Bft) NW 325 15,9 C 20,1 C 0,0 km/h (0 Bft)
13.08.2020 03:40 20,7 C 74 % 1016,2 hPa 0,0 l/m 0,0 km/h (0 Bft) N-NW 335 15,9 C 20,7 C 0,0 km/h (0 Bft)
13.08.2020 02:45 21,2 C 72 % 1016,6 hPa 0,0 l/m 0,0 km/h (0 Bft) O-SO 105 15,9 C 21,2 C 0,0 km/h (0 Bft)
13.08.2020 01:49 21,8 C 71 % 1016,8 hPa 0,0 l/m 0,0 km/h (0 Bft) NO 50 16,3 C 21,8 C 0,0 km/h (0 Bft)
13.08.2020 00:53 22,4 C 68 % 1017,0 hPa 0,0 l/m 0,0 km/h (0 Bft) N-NW 335 16,2 C 22,4 C 0,0 km/h (0 Bft)
12.08.2020 23:58 23,2 C 64 % 1017,0 hPa 0,0 l/m 0,0 km/h (0 Bft) N-NO 25 16,0 C 23,2 C 0,0 km/h (0 Bft)
12.08.2020 23:02 23,8 C 63 % 1016,8 hPa 0,0 l/m 0,0 km/h (0 Bft) NW 310 16,3 C 23,8 C 0,0 km/h (0 Bft)
12.08.2020 22:07 24,3 C 62 % 1016,9 hPa 0,0 l/m 0,0 km/h (0 Bft) N-NW 330 16,5 C 24,3 C 0,0 km/h (0 Bft)
12.08.2020 21:12 26,4 C 56 % 1016,7 hPa 0,0 l/m 0,0 km/h (0 Bft) N-NW 340 16,9 C 26,4 C 0,0 km/h (0 Bft)
12.08.2020 20:16 27,2 C 53 % 1016,6 hPa 0,0 l/m 1,2 km/h (1 Bft) NO 45 16,8 C 27,2 C 1,2 km/h (1 Bft)
12.08.2020 19:21 29,0 C 47 % 1016,2 hPa 0,0 l/m 1,5 km/h (1 Bft) N-NO 30 16,5 C 29,0 C 1,5 km/h (1 Bft)
12.08.2020 18:24 29,8 C 44 % 1016,2 hPa 0,0 l/m 2,1 km/h (1 Bft) N-NO 30 16,2 C 29,8 C 2,1 km/h (1 Bft)
12.08.2020 17:27 30,0 C 42 % 1016,7 hPa 0,0 l/m 2,4 km/h (1 Bft) W 265 15,7 C 30,0 C 2,4 km/h (1 Bft)
12.08.2020 16:31 30,2 C 43 % 1017,1 hPa 0,0 l/m 0,9 km/h (0 Bft) N 0 16,2 C 30,2 C 0,9 km/h (0 Bft)
12.08.2020 15:35 30,2 C 44 % 1017,6 hPa 0,0 l/m 0,0 km/h (0 Bft) N-NO 30 16,6 C 30,2 C 0,0 km/h (0 Bft)
12.08.2020 14:40 30,1 C 44 % 1017,9 hPa 0,0 l/m 3,0 km/h (1 Bft) S 175 16,5 C 30,1 C 3,0 km/h (1 Bft)
12.08.2020 13:39 29,7 C 47 % 1018,5 hPa 0,0 l/m 0,0 km/h (0 Bft) S 180 17,2 C 29,7 C 0,0 km/h (0 Bft)
12.08.2020 13:02 30,2 C 46 % 1018,5 hPa 0,0 l/m 0,0 km/h (0 Bft) N-NO 25 17,3 C 30,2 C 0,0 km/h (0 Bft)
_ Min-Zeit 05:59 17:16 12:52 - 13:02 - - 17:16 05:59 13:02
Minimum _ 19,3 C 41 % 1013,7 hPa - 0,0 km/h (0 Bft) - - 15,3 C 19,3 C 0,0 km/h (0 Bft)
_ Max-Zeit 12:58 06:09 13:04 13:02 15:48 - - 10:49 12:58 15:48
Maximum _ 31,6 C 80 % 1018,6 hPa 0,0 l/m 11,2 km/h
W-SW (2 Bft)
- - 19,5 C 31,6 C 11,2 km/h
W-SW (2 Bft)
Durchschnitt _ 25,6 C 59 % 1016,6 hPa #0,0 l/m 1,0 km/h (0 Bft) NO - 16,6 C 25,6 C 1,0 km/h (0 Bft)